Terminal Aerodrome Forecast
Issued by NWS Charleston, WV

Current Version | Previous Version | Text Only | Print | Product List | Glossary Off
Versions: 1 2 3 4 5 6 7 8 9 10 11 12 13 14 15 16 17 18 19 20 21 22 23 24 25

178
FTUS41 KRLX 140257 AAA
TAFPKB
TAF AMD
KPKB 140257Z 1403/1424 02004KT P6SM -RA BKN080
     FM140700 04004KT 6SM -RA OVC040
     FM140800 04003KT 4SM -FZRA BR OVC015
     FM141100 VRB03KT 1SM -FZRA BR OVC004
     FM141400 VRB03KT 2SM -RA BR OVC005=

USA.gov is the U.S. government's official web portal to all federal, state and local government web resources and services.